• Join FlightAware (Why Join?)
  • Login
  • US Flag 
03:48PM EDT


 

Airport Tracker/Info


-or-


 

Live Flight TrackerFlight Track Log ✈ JIA2328 ✈ 11-May-2013 ✈ KPHL - KALB

Flight Track Log - Related Links

Times and Time Zones

All times are in EDT time to prevent confusion due to time zone crossing. See the JIA2328 flight status page for this flight to view local times or setup timezone preferences in your user account.

Time Position Orientation Groundspeed Altitude Reporting Facility
EDT Latitude Longitude Course Direction KTS MPH feet Rate Location/Type
08:33AM 39.8667 -75.2667 37° Northeast 150 173 900  Level Philadelphia TRACON
08:35AM 39.8167 -74.8856 90° East  Level FlightAware Approximate
08:35AM 39.7861 -75.2633 178° South 143 165 7,400  Level New York Center
08:36AM 39.7968 -74.7672 105° East  Level FlightAware Approximate
08:36AM 39.7881 -75.1556 89° East 212 244 9,900  Level New York Center
08:37AM 39.8152 -74.6682 37° Northeast  Level FlightAware Approximate
08:37AM 39.7881 -75.0419 90° East 287 330 11,600  Level New York Center
08:38AM 39.8893 -74.5941 37° Northeast  Level FlightAware Approximate
08:38AM 39.7897 -74.8828 89° East 377 434 12,000  Level New York Center
08:39AM 39.7986 -74.7453 85° East 406 467 12,700 960 Climbing New York Center
08:40AM 39.8794 -74.6308 47° Northeast 394 453 14,000 1,320 Climbing New York Center
08:41AM 39.9806 -74.5364 36° Northeast 410 472 15,400 1,500 Climbing New York Center
08:42AM 40.0903 -74.4311 36° Northeast 437 503 17,000 1,560 Climbing New York Center
08:43AM 40.1911 -74.3331 37° Northeast 451 519 18,600 1,200 Climbing New York Center
08:44AM 40.2856 -74.2428 36° Northeast 451 519 19,400 840 Climbing New York Center
08:45AM 40.3864 -74.1417 37° Northeast 451 519 20,400 900 Climbing New York Center
08:47AM 40.6489 -73.8897 36° Northeast 467 537 22,500 780 Climbing Boston Center
08:48AM 40.7564 -73.7825 37° Northeast 477 549 23,000 480 Climbing Boston Center
08:49AM 40.8514 -73.6775 40° Northeast 485 558 23,500 180 Climbing Boston Center
08:50AM 40.9733 -73.5892 29° Northeast 491 565 23,400 -300 Descending Boston Center
08:51AM 41.1217 -73.5339 16° North 485 558 23,000 -240 Descending Boston Center
08:52AM 41.2536 -73.4811 17° North 491 565 23,000 -300 Level Boston Center
08:53AM 41.3853 -73.4417 13° North 486 559 22,500 -780 Descending Boston Center
08:54AM 41.5183 -73.4547 356° North 478 550 21,500 -1,020 Descending Boston Center
08:55AM 41.6456 -73.4708 355° North 467 537 20,500 -1,380 Descending Boston Center
08:56AM 41.7683 -73.4867 355° North 456 525 18,800 -2,100 Descending Boston Center
08:57AM 41.8661 -73.5106 350° North 417 480 16,300 -2,400 Descending Boston Center
08:58AM 41.9781 -73.5458 347° North 377 434 14,000 -2,160 Descending Boston Center
08:59AM 42.0819 -73.5814 346° North 377 434 12,000 -1,500 Descending Boston Center
09:00AM 42.1881 -73.6169 346° North 382 440 11,000 -900 Descending Boston Center
09:01AM 42.2836 -73.6497 346° North 369 425 10,300 -1,260 Descending Boston Center
09:02AM 42.3833 -73.6797 347° North 286 329 8,200 -1,740 Descending Boston Center
09:03AM 42.4706 -73.6956 352° North 298 343 6,400 -1,620 Descending Boston Center
09:04AM 42.5519 -73.6886 North 293 337 5,000 -720 Descending Boston Center
09:05AM 42.6311 -73.6789 North 287 330 5,000 -240 Level Boston Center
09:07AM 42.7189 -73.6778 North 289 333 4,500 -960 Descending Boston Center
09:08AM 42.8000 -73.6908 353° North 273 314 3,000 -780 Descending Boston Center
09:09AM 42.8747 -73.7064 351° North 279 321 3,000 -300 Level Boston Center
09:10AM 42.9328 -73.7472 333° Northwest 240 276 2,400 -540 Descending Boston Center
09:11AM 42.9069 -73.8119 241° Southwest 201 231 2,000 -420 Descending Boston Center